sensor_id;sensor_type;location;lat;lon;timestamp;P1;durP1;ratioP1;P2;durP2;ratioP2
22660;SDS011;11497;52.222;21.246;2023-05-02T00:00:53;13.55;;;7.15;;
22660;SDS011;11497;52.222;21.246;2023-05-02T00:03:21;16.35;;;7.53;;
22660;SDS011;11497;52.222;21.246;2023-05-02T00:05:49;13.30;;;6.80;;
22660;SDS011;11497;52.222;21.246;2023-05-02T00:08:18;12.32;;;7.55;;
22660;SDS011;11497;52.222;21.246;2023-05-02T00:10:46;11.98;;;6.30;;
22660;SDS011;11497;52.222;21.246;2023-05-02T00:13:13;12.70;;;6.50;;
22660;SDS011;11497;52.222;21.246;2023-05-02T00:15:42;15.23;;;6.78;;
22660;SDS011;11497;52.222;21.246;2023-05-02T00:18:09;11.52;;;6.68;;
22660;SDS011;11497;52.222;21.246;2023-05-02T00:20:38;14.25;;;6.45;;
22660;SDS011;11497;52.222;21.246;2023-05-02T00:23:07;16.65;;;7.15;;
22660;SDS011;11497;52.222;21.246;2023-05-02T00:25:36;13.98;;;6.68;;
22660;SDS011;11497;52.222;21.246;2023-05-02T00:28:11;12.93;;;6.93;;
22660;SDS011;11497;52.222;21.246;2023-05-02T00:30:45;14.68;;;6.47;;
22660;SDS011;11497;52.222;21.246;2023-05-02T00:33:13;17.23;;;6.85;;
22660;SDS011;11497;52.222;21.246;2023-05-02T00:35:41;14.55;;;6.70;;
22660;SDS011;11497;52.222;21.246;2023-05-02T00:38:09;14.20;;;7.35;;
22660;SDS011;11497;52.222;21.246;2023-05-02T00:40:43;13.43;;;7.20;;
22660;SDS011;11497;52.222;21.246;2023-05-02T00:43:13;20.92;;;7.50;;
22660;SDS011;11497;52.222;21.246;2023-05-02T00:45:42;18.27;;;7.05;;
22660;SDS011;11497;52.222;21.246;2023-05-02T00:48:12;14.25;;;6.75;;
22660;SDS011;11497;52.222;21.246;2023-05-02T00:50:41;13.45;;;6.35;;
22660;SDS011;11497;52.222;21.246;2023-05-02T00:53:09;11.50;;;5.78;;
22660;SDS011;11497;52.222;21.246;2023-05-02T00:55:37;14.65;;;7.05;;
22660;SDS011;11497;52.222;21.246;2023-05-02T00:58:06;11.52;;;6.65;;
22660;SDS011;11497;52.222;21.246;2023-05-02T01:12:40;14.73;;;6.15;;
22660;SDS011;11497;52.222;21.246;2023-05-02T01:15:15;13.32;;;6.18;;
22660;SDS011;11497;52.222;21.246;2023-05-02T01:17:46;16.95;;;6.85;;
22660;SDS011;11497;52.222;21.246;2023-05-02T01:20:18;11.75;;;6.53;;
22660;SDS011;11497;52.222;21.246;2023-05-02T01:22:49;15.90;;;6.95;;
22660;SDS011;11497;52.222;21.246;2023-05-02T01:25:32;16.17;;;7.15;;
22660;SDS011;11497;52.222;21.246;2023-05-02T01:30:43;15.50;;;6.53;;
22660;SDS011;11497;52.222;21.246;2023-05-02T01:33:16;13.20;;;6.18;;
22660;SDS011;11497;52.222;21.246;2023-05-02T01:35:45;13.40;;;6.20;;
22660;SDS011;11497;52.222;21.246;2023-05-02T01:38:17;13.15;;;6.35;;
22660;SDS011;11497;52.222;21.246;2023-05-02T01:40:47;12.52;;;6.20;;
22660;SDS011;11497;52.222;21.246;2023-05-02T01:43:18;12.45;;;6.60;;
22660;SDS011;11497;52.222;21.246;2023-05-02T01:45:47;14.38;;;6.50;;
22660;SDS011;11497;52.222;21.246;2023-05-02T01:48:17;14.85;;;7.35;;
22660;SDS011;11497;52.222;21.246;2023-05-02T01:50:46;13.77;;;6.47;;
22660;SDS011;11497;52.222;21.246;2023-05-02T01:53:17;14.35;;;6.47;;
22660;SDS011;11497;52.222;21.246;2023-05-02T01:55:47;17.83;;;6.53;;
22660;SDS011;11497;52.222;21.246;2023-05-02T01:58:18;13.00;;;6.57;;
22660;SDS011;11497;52.222;21.246;2023-05-02T02:00:48;12.30;;;6.50;;
22660;SDS011;11497;52.222;21.246;2023-05-02T02:03:18;13.13;;;6.05;;
22660;SDS011;11497;52.222;21.246;2023-05-02T02:05:49;13.35;;;6.43;;
22660;SDS011;11497;52.222;21.246;2023-05-02T02:08:19;14.63;;;6.90;;
22660;SDS011;11497;52.222;21.246;2023-05-02T02:10:48;14.35;;;6.78;;
22660;SDS011;11497;52.222;21.246;2023-05-02T02:15:56;16.67;;;5.85;;
22660;SDS011;11497;52.222;21.246;2023-05-02T02:18:28;14.65;;;6.07;;
22660;SDS011;11497;52.222;21.246;2023-05-02T02:20:58;13.45;;;5.72;;
22660;SDS011;11497;52.222;21.246;2023-05-02T02:23:27;13.27;;;5.88;;
22660;SDS011;11497;52.222;21.246;2023-05-02T02:25:55;12.10;;;5.47;;
22660;SDS011;11497;52.222;21.246;2023-05-02T02:28:24;9.93;;;5.22;;
22660;SDS011;11497;52.222;21.246;2023-05-02T02:30:53;12.20;;;5.47;;
22660;SDS011;11497;52.222;21.246;2023-05-02T02:33:22;14.05;;;5.60;;
22660;SDS011;11497;52.222;21.246;2023-05-02T02:41:32;10.73;;;4.88;;
22660;SDS011;11497;52.222;21.246;2023-05-02T02:44:14;8.45;;;4.82;;
22660;SDS011;11497;52.222;21.246;2023-05-02T02:47:10;8.23;;;4.65;;
22660;SDS011;11497;52.222;21.246;2023-05-02T02:50:19;9.98;;;5.28;;
22660;SDS011;11497;52.222;21.246;2023-05-02T02:52:55;8.70;;;4.85;;
22660;SDS011;11497;52.222;21.246;2023-05-02T03:01:19;7.55;;;4.40;;
22660;SDS011;11497;52.222;21.246;2023-05-02T03:03:48;9.25;;;4.30;;
22660;SDS011;11497;52.222;21.246;2023-05-02T03:06:19;9.35;;;4.93;;
22660;SDS011;11497;52.222;21.246;2023-05-02T03:08:49;9.32;;;4.45;;
22660;SDS011;11497;52.222;21.246;2023-05-02T03:11:22;11.52;;;5.32;;
22660;SDS011;11497;52.222;21.246;2023-05-02T03:13:50;13.18;;;4.75;;
22660;SDS011;11497;52.222;21.246;2023-05-02T03:19:08;11.07;;;4.97;;
22660;SDS011;11497;52.222;21.246;2023-05-02T03:21:37;10.15;;;4.65;;
22660;SDS011;11497;52.222;21.246;2023-05-02T03:24:14;9.73;;;5.20;;
22660;SDS011;11497;52.222;21.246;2023-05-02T03:26:45;9.63;;;4.97;;
22660;SDS011;11497;52.222;21.246;2023-05-02T03:29:16;7.90;;;4.80;;
22660;SDS011;11497;52.222;21.246;2023-05-02T03:31:44;8.35;;;4.85;;
22660;SDS011;11497;52.222;21.246;2023-05-02T03:34:12;8.88;;;4.60;;
22660;SDS011;11497;52.222;21.246;2023-05-02T03:36:41;7.63;;;4.60;;
22660;SDS011;11497;52.222;21.246;2023-05-02T03:39:09;7.93;;;4.72;;
22660;SDS011;11497;52.222;21.246;2023-05-02T03:41:38;8.48;;;4.63;;
22660;SDS011;11497;52.222;21.246;2023-05-02T03:44:10;9.15;;;4.63;;
22660;SDS011;11497;52.222;21.246;2023-05-02T03:46:39;10.25;;;4.55;;
22660;SDS011;11497;52.222;21.246;2023-05-02T03:49:10;10.85;;;5.22;;
22660;SDS011;11497;52.222;21.246;2023-05-02T03:51:40;9.68;;;4.65;;
22660;SDS011;11497;52.222;21.246;2023-05-02T03:54:08;6.82;;;4.40;;
22660;SDS011;11497;52.222;21.246;2023-05-02T03:56:39;8.43;;;4.18;;
22660;SDS011;11497;52.222;21.246;2023-05-02T04:01:16;9.82;;;4.70;;
22660;SDS011;11497;52.222;21.246;2023-05-02T04:03:48;10.65;;;4.82;;
22660;SDS011;11497;52.222;21.246;2023-05-02T04:06:21;8.32;;;4.18;;
22660;SDS011;11497;52.222;21.246;2023-05-02T04:08:55;9.27;;;4.68;;
22660;SDS011;11497;52.222;21.246;2023-05-02T04:11:30;8.43;;;4.50;;
22660;SDS011;11497;52.222;21.246;2023-05-02T04:13:59;8.57;;;4.75;;
22660;SDS011;11497;52.222;21.246;2023-05-02T04:16:27;11.43;;;5.18;;
22660;SDS011;11497;52.222;21.246;2023-05-02T04:18:56;12.25;;;4.93;;
22660;SDS011;11497;52.222;21.246;2023-05-02T04:21:25;8.73;;;4.47;;
22660;SDS011;11497;52.222;21.246;2023-05-02T04:23:53;11.15;;;4.70;;
22660;SDS011;11497;52.222;21.246;2023-05-02T04:26:21;10.25;;;4.78;;
22660;SDS011;11497;52.222;21.246;2023-05-02T04:28:56;8.63;;;4.85;;
22660;SDS011;11497;52.222;21.246;2023-05-02T04:31:24;11.68;;;4.82;;
22660;SDS011;11497;52.222;21.246;2023-05-02T04:33:53;9.32;;;5.03;;
22660;SDS011;11497;52.222;21.246;2023-05-02T04:36:24;8.75;;;4.80;;
22660;SDS011;11497;52.222;21.246;2023-05-02T04:38:54;11.07;;;4.50;;
22660;SDS011;11497;52.222;21.246;2023-05-02T04:41:22;8.63;;;4.85;;
22660;SDS011;11497;52.222;21.246;2023-05-02T04:43:56;10.90;;;4.93;;
22660;SDS011;11497;52.222;21.246;2023-05-02T04:46:24;9.43;;;5.03;;
22660;SDS011;11497;52.222;21.246;2023-05-02T04:48:52;8.68;;;4.65;;
22660;SDS011;11497;52.222;21.246;2023-05-02T04:51:20;11.00;;;4.82;;
22660;SDS011;11497;52.222;21.246;2023-05-02T04:53:49;7.65;;;5.20;;
22660;SDS011;11497;52.222;21.246;2023-05-02T04:56:18;9.77;;;4.82;;
22660;SDS011;11497;52.222;21.246;2023-05-02T04:58:47;6.38;;;4.90;;
22660;SDS011;11497;52.222;21.246;2023-05-02T05:01:15;11.15;;;4.88;;
22660;SDS011;11497;52.222;21.246;2023-05-02T05:03:45;10.75;;;4.88;;
22660;SDS011;11497;52.222;21.246;2023-05-02T05:06:15;10.13;;;5.07;;
22660;SDS011;11497;52.222;21.246;2023-05-02T05:08:44;10.98;;;4.78;;
22660;SDS011;11497;52.222;21.246;2023-05-02T05:11:13;10.25;;;5.15;;
22660;SDS011;11497;52.222;21.246;2023-05-02T05:13:43;13.32;;;5.43;;
22660;SDS011;11497;52.222;21.246;2023-05-02T05:16:13;8.00;;;5.50;;
22660;SDS011;11497;52.222;21.246;2023-05-02T05:18:42;8.90;;;4.78;;
22660;SDS011;11497;52.222;21.246;2023-05-02T05:21:12;10.07;;;5.05;;
22660;SDS011;11497;52.222;21.246;2023-05-02T05:23:40;10.02;;;5.30;;
22660;SDS011;11497;52.222;21.246;2023-05-02T05:26:15;9.18;;;4.60;;
22660;SDS011;11497;52.222;21.246;2023-05-02T05:28:46;10.10;;;4.93;;
22660;SDS011;11497;52.222;21.246;2023-05-02T05:31:16;7.95;;;5.10;;
22660;SDS011;11497;52.222;21.246;2023-05-02T05:33:48;10.32;;;5.20;;
22660;SDS011;11497;52.222;21.246;2023-05-02T05:36:17;8.93;;;4.68;;
22660;SDS011;11497;52.222;21.246;2023-05-02T05:38:47;10.75;;;5.13;;
22660;SDS011;11497;52.222;21.246;2023-05-02T05:41:15;10.75;;;5.53;;
22660;SDS011;11497;52.222;21.246;2023-05-02T05:43:47;11.73;;;5.00;;
22660;SDS011;11497;52.222;21.246;2023-05-02T05:46:15;11.50;;;5.05;;
22660;SDS011;11497;52.222;21.246;2023-05-02T05:48:43;9.15;;;4.72;;
22660;SDS011;11497;52.222;21.246;2023-05-02T05:51:11;8.65;;;5.07;;
22660;SDS011;11497;52.222;21.246;2023-05-02T05:53:39;12.80;;;5.22;;
22660;SDS011;11497;52.222;21.246;2023-05-02T05:56:09;12.13;;;5.25;;
22660;SDS011;11497;52.222;21.246;2023-05-02T05:58:41;12.48;;;5.35;;
22660;SDS011;11497;52.222;21.246;2023-05-02T06:01:12;10.23;;;4.88;;
22660;SDS011;11497;52.222;21.246;2023-05-02T06:03:41;9.23;;;5.10;;
22660;SDS011;11497;52.222;21.246;2023-05-02T06:06:09;13.93;;;5.80;;
22660;SDS011;11497;52.222;21.246;2023-05-02T06:08:37;10.40;;;5.40;;
22660;SDS011;11497;52.222;21.246;2023-05-02T06:11:08;13.65;;;5.30;;
22660;SDS011;11497;52.222;21.246;2023-05-02T06:13:37;9.63;;;5.43;;
22660;SDS011;11497;52.222;21.246;2023-05-02T06:16:06;11.13;;;5.38;;
22660;SDS011;11497;52.222;21.246;2023-05-02T06:18:34;11.73;;;5.80;;
22660;SDS011;11497;52.222;21.246;2023-05-02T06:21:03;9.63;;;5.32;;
22660;SDS011;11497;52.222;21.246;2023-05-02T06:23:31;12.63;;;5.57;;
22660;SDS011;11497;52.222;21.246;2023-05-02T06:26:00;12.82;;;5.60;;
22660;SDS011;11497;52.222;21.246;2023-05-02T06:28:30;9.50;;;5.75;;
22660;SDS011;11497;52.222;21.246;2023-05-02T06:31:01;11.13;;;5.40;;
22660;SDS011;11497;52.222;21.246;2023-05-02T06:33:32;10.02;;;5.38;;
22660;SDS011;11497;52.222;21.246;2023-05-02T06:36:00;9.68;;;5.13;;
22660;SDS011;11497;52.222;21.246;2023-05-02T06:38:28;11.73;;;5.38;;
22660;SDS011;11497;52.222;21.246;2023-05-02T06:40:56;11.45;;;5.13;;
22660;SDS011;11497;52.222;21.246;2023-05-02T06:43:24;13.00;;;5.55;;
22660;SDS011;11497;52.222;21.246;2023-05-02T06:45:53;10.60;;;5.07;;
22660;SDS011;11497;52.222;21.246;2023-05-02T06:48:22;7.90;;;4.82;;
22660;SDS011;11497;52.222;21.246;2023-05-02T06:50:52;9.23;;;5.03;;
22660;SDS011;11497;52.222;21.246;2023-05-02T06:53:20;12.25;;;5.15;;
22660;SDS011;11497;52.222;21.246;2023-05-02T06:55:48;10.77;;;5.47;;
22660;SDS011;11497;52.222;21.246;2023-05-02T06:58:16;9.93;;;5.10;;
22660;SDS011;11497;52.222;21.246;2023-05-02T07:00:44;8.45;;;4.60;;
22660;SDS011;11497;52.222;21.246;2023-05-02T07:03:14;9.38;;;4.93;;
22660;SDS011;11497;52.222;21.246;2023-05-02T07:05:42;12.63;;;4.68;;
22660;SDS011;11497;52.222;21.246;2023-05-02T07:08:10;11.73;;;4.95;;
22660;SDS011;11497;52.222;21.246;2023-05-02T07:10:38;6.00;;;4.45;;
22660;SDS011;11497;52.222;21.246;2023-05-02T07:13:06;8.75;;;4.88;;
22660;SDS011;11497;52.222;21.246;2023-05-02T07:15:33;7.25;;;4.85;;
22660;SDS011;11497;52.222;21.246;2023-05-02T07:18:01;9.32;;;4.38;;
22660;SDS011;11497;52.222;21.246;2023-05-02T07:20:29;7.15;;;4.10;;
22660;SDS011;11497;52.222;21.246;2023-05-02T07:22:58;8.93;;;4.38;;
22660;SDS011;11497;52.222;21.246;2023-05-02T07:25:26;5.65;;;4.20;;
22660;SDS011;11497;52.222;21.246;2023-05-02T07:27:54;5.53;;;4.15;;
22660;SDS011;11497;52.222;21.246;2023-05-02T07:30:22;8.10;;;4.57;;
22660;SDS011;11497;52.222;21.246;2023-05-02T07:32:50;5.93;;;4.10;;
22660;SDS011;11497;52.222;21.246;2023-05-02T07:35:18;5.82;;;3.90;;
22660;SDS011;11497;52.222;21.246;2023-05-02T07:37:46;6.32;;;3.97;;
22660;SDS011;11497;52.222;21.246;2023-05-02T07:40:14;9.23;;;3.88;;
22660;SDS011;11497;52.222;21.246;2023-05-02T07:42:42;6.25;;;3.50;;
22660;SDS011;11497;52.222;21.246;2023-05-02T07:45:09;4.80;;;3.50;;
22660;SDS011;11497;52.222;21.246;2023-05-02T07:47:37;6.80;;;3.88;;
22660;SDS011;11497;52.222;21.246;2023-05-02T07:50:05;8.23;;;3.65;;
22660;SDS011;11497;52.222;21.246;2023-05-02T07:52:34;5.35;;;3.22;;
22660;SDS011;11497;52.222;21.246;2023-05-02T07:55:02;4.95;;;3.40;;
22660;SDS011;11497;52.222;21.246;2023-05-02T07:57:30;7.25;;;3.53;;
22660;SDS011;11497;52.222;21.246;2023-05-02T07:59:58;8.20;;;3.60;;
22660;SDS011;11497;52.222;21.246;2023-05-02T08:02:39;4.28;;;3.47;;
22660;SDS011;11497;52.222;21.246;2023-05-02T08:05:08;8.70;;;3.50;;
22660;SDS011;11497;52.222;21.246;2023-05-02T08:07:36;4.88;;;3.08;;
22660;SDS011;11497;52.222;21.246;2023-05-02T08:10:04;6.18;;;3.30;;
22660;SDS011;11497;52.222;21.246;2023-05-02T08:12:36;4.88;;;3.58;;
22660;SDS011;11497;52.222;21.246;2023-05-02T08:15:06;8.40;;;3.33;;
22660;SDS011;11497;52.222;21.246;2023-05-02T08:17:37;6.10;;;3.03;;
22660;SDS011;11497;52.222;21.246;2023-05-02T08:20:05;8.88;;;3.45;;
22660;SDS011;11497;52.222;21.246;2023-05-02T08:22:33;4.63;;;2.67;;
22660;SDS011;11497;52.222;21.246;2023-05-02T08:25:01;6.55;;;2.95;;
22660;SDS011;11497;52.222;21.246;2023-05-02T08:27:29;9.73;;;3.10;;
22660;SDS011;11497;52.222;21.246;2023-05-02T08:29:57;5.88;;;3.03;;
22660;SDS011;11497;52.222;21.246;2023-05-02T08:32:27;5.38;;;2.63;;
22660;SDS011;11497;52.222;21.246;2023-05-02T08:34:55;4.78;;;2.90;;
22660;SDS011;11497;52.222;21.246;2023-05-02T08:37:23;6.25;;;3.05;;
22660;SDS011;11497;52.222;21.246;2023-05-02T08:39:51;7.35;;;3.20;;
22660;SDS011;11497;52.222;21.246;2023-05-02T08:42:20;6.10;;;3.40;;
22660;SDS011;11497;52.222;21.246;2023-05-02T08:44:48;8.00;;;3.03;;
22660;SDS011;11497;52.222;21.246;2023-05-02T08:47:16;6.45;;;3.60;;
22660;SDS011;11497;52.222;21.246;2023-05-02T08:49:45;4.47;;;3.00;;
22660;SDS011;11497;52.222;21.246;2023-05-02T08:52:14;4.15;;;3.05;;
22660;SDS011;11497;52.222;21.246;2023-05-02T08:54:45;4.45;;;2.92;;
22660;SDS011;11497;52.222;21.246;2023-05-02T08:57:17;7.93;;;3.58;;
22660;SDS011;11497;52.222;21.246;2023-05-02T08:59:45;4.38;;;3.10;;
22660;SDS011;11497;52.222;21.246;2023-05-02T09:05:07;4.17;;;3.17;;
22660;SDS011;11497;52.222;21.246;2023-05-02T09:07:46;5.70;;;3.40;;
22660;SDS011;11497;52.222;21.246;2023-05-02T09:10:14;6.32;;;3.40;;
22660;SDS011;11497;52.222;21.246;2023-05-02T09:12:42;6.68;;;3.20;;
22660;SDS011;11497;52.222;21.246;2023-05-02T09:15:10;14.00;;;3.33;;
22660;SDS011;11497;52.222;21.246;2023-05-02T09:17:47;4.55;;;3.22;;
22660;SDS011;11497;52.222;21.246;2023-05-02T09:20:15;10.80;;;3.67;;
22660;SDS011;11497;52.222;21.246;2023-05-02T09:22:50;5.50;;;3.75;;
22660;SDS011;11497;52.222;21.246;2023-05-02T09:25:18;5.28;;;3.20;;
22660;SDS011;11497;52.222;21.246;2023-05-02T09:30:22;7.60;;;3.80;;
22660;SDS011;11497;52.222;21.246;2023-05-02T09:32:52;8.38;;;3.42;;
22660;SDS011;11497;52.222;21.246;2023-05-02T09:35:23;4.75;;;3.20;;
22660;SDS011;11497;52.222;21.246;2023-05-02T09:37:52;4.90;;;3.38;;
22660;SDS011;11497;52.222;21.246;2023-05-02T09:40:22;7.90;;;3.20;;
22660;SDS011;11497;52.222;21.246;2023-05-02T09:42:51;8.85;;;3.65;;
22660;SDS011;11497;52.222;21.246;2023-05-02T09:45:19;5.95;;;3.10;;
22660;SDS011;11497;52.222;21.246;2023-05-02T09:47:52;6.47;;;4.00;;
22660;SDS011;11497;52.222;21.246;2023-05-02T09:50:35;7.20;;;4.18;;
22660;SDS011;11497;52.222;21.246;2023-05-02T09:53:07;5.90;;;3.97;;
22660;SDS011;11497;52.222;21.246;2023-05-02T09:55:37;4.78;;;3.83;;
22660;SDS011;11497;52.222;21.246;2023-05-02T09:58:05;5.80;;;4.10;;
22660;SDS011;11497;52.222;21.246;2023-05-02T10:03:08;7.57;;;4.10;;
22660;SDS011;11497;52.222;21.246;2023-05-02T10:05:37;6.15;;;4.22;;
22660;SDS011;11497;52.222;21.246;2023-05-02T10:08:06;10.32;;;4.28;;
22660;SDS011;11497;52.222;21.246;2023-05-02T10:10:36;6.70;;;4.20;;
22660;SDS011;11497;52.222;21.246;2023-05-02T10:13:11;6.50;;;3.85;;
22660;SDS011;11497;52.222;21.246;2023-05-02T10:15:43;10.77;;;4.90;;
22660;SDS011;11497;52.222;21.246;2023-05-02T10:18:12;6.00;;;4.55;;
22660;SDS011;11497;52.222;21.246;2023-05-02T10:20:47;9.00;;;4.80;;
22660;SDS011;11497;52.222;21.246;2023-05-02T10:23:28;9.82;;;4.78;;
22660;SDS011;11497;52.222;21.246;2023-05-02T10:25:56;7.90;;;4.68;;
22660;SDS011;11497;52.222;21.246;2023-05-02T10:28:26;7.30;;;4.93;;
22660;SDS011;11497;52.222;21.246;2023-05-02T10:30:55;6.80;;;4.55;;
22660;SDS011;11497;52.222;21.246;2023-05-02T10:33:26;8.57;;;5.50;;
22660;SDS011;11497;52.222;21.246;2023-05-02T10:35:57;11.57;;;4.88;;
22660;SDS011;11497;52.222;21.246;2023-05-02T10:38:25;7.03;;;4.70;;
22660;SDS011;11497;52.222;21.246;2023-05-02T10:41:00;8.98;;;5.40;;
22660;SDS011;11497;52.222;21.246;2023-05-02T10:43:49;9.25;;;5.50;;
22660;SDS011;11497;52.222;21.246;2023-05-02T10:49:10;9.93;;;5.32;;
22660;SDS011;11497;52.222;21.246;2023-05-02T10:51:39;11.05;;;5.55;;
22660;SDS011;11497;52.222;21.246;2023-05-02T10:59:39;12.52;;;5.18;;
22660;SDS011;11497;52.222;21.246;2023-05-02T11:05:03;10.27;;;7.03;;
22660;SDS011;11497;52.222;21.246;2023-05-02T11:07:33;11.15;;;6.32;;
22660;SDS011;11497;52.222;21.246;2023-05-02T11:10:23;10.18;;;6.53;;
22660;SDS011;11497;52.222;21.246;2023-05-02T11:12:53;10.35;;;7.00;;
22660;SDS011;11497;52.222;21.246;2023-05-02T11:20:39;14.48;;;9.93;;
22660;SDS011;11497;52.222;21.246;2023-05-02T11:25:43;17.35;;;10.48;;
22660;SDS011;11497;52.222;21.246;2023-05-02T11:31:05;17.20;;;11.43;;
22660;SDS011;11497;52.222;21.246;2023-05-02T11:33:34;14.25;;;9.38;;
22660;SDS011;11497;52.222;21.246;2023-05-02T11:36:02;12.88;;;8.20;;
22660;SDS011;11497;52.222;21.246;2023-05-02T11:38:36;12.98;;;7.38;;
22660;SDS011;11497;52.222;21.246;2023-05-02T11:41:05;11.40;;;7.10;;
22660;SDS011;11497;52.222;21.246;2023-05-02T11:43:33;10.05;;;6.50;;
22660;SDS011;11497;52.222;21.246;2023-05-02T11:46:01;11.00;;;6.53;;
22660;SDS011;11497;52.222;21.246;2023-05-02T11:48:32;12.60;;;6.82;;
22660;SDS011;11497;52.222;21.246;2023-05-02T11:51:00;13.23;;;7.25;;
22660;SDS011;11497;52.222;21.246;2023-05-02T11:53:30;11.45;;;7.32;;
22660;SDS011;11497;52.222;21.246;2023-05-02T11:55:59;13.18;;;7.80;;
22660;SDS011;11497;52.222;21.246;2023-05-02T11:58:29;13.10;;;7.85;;
22660;SDS011;11497;52.222;21.246;2023-05-02T12:01:11;15.13;;;8.07;;
22660;SDS011;11497;52.222;21.246;2023-05-02T12:03:39;13.40;;;9.70;;
22660;SDS011;11497;52.222;21.246;2023-05-02T12:06:11;13.85;;;9.73;;
22660;SDS011;11497;52.222;21.246;2023-05-02T12:08:42;15.38;;;8.80;;
22660;SDS011;11497;52.222;21.246;2023-05-02T12:11:14;14.25;;;8.90;;
22660;SDS011;11497;52.222;21.246;2023-05-02T12:13:46;13.90;;;8.55;;
22660;SDS011;11497;52.222;21.246;2023-05-02T12:16:16;13.65;;;8.57;;
22660;SDS011;11497;52.222;21.246;2023-05-02T12:18:45;13.23;;;8.55;;
22660;SDS011;11497;52.222;21.246;2023-05-02T12:21:14;10.55;;;8.30;;
22660;SDS011;11497;52.222;21.246;2023-05-02T12:23:43;13.85;;;8.50;;
22660;SDS011;11497;52.222;21.246;2023-05-02T12:26:15;11.27;;;8.48;;
22660;SDS011;11497;52.222;21.246;2023-05-02T12:28:48;12.23;;;8.60;;
22660;SDS011;11497;52.222;21.246;2023-05-02T12:31:18;13.30;;;8.80;;
22660;SDS011;11497;52.222;21.246;2023-05-02T12:33:46;17.77;;;9.52;;
22660;SDS011;11497;52.222;21.246;2023-05-02T12:36:16;14.48;;;10.45;;
22660;SDS011;11497;52.222;21.246;2023-05-02T12:38:51;13.32;;;9.43;;
22660;SDS011;11497;52.222;21.246;2023-05-02T12:41:33;13.05;;;10.05;;
22660;SDS011;11497;52.222;21.246;2023-05-02T12:44:02;16.48;;;10.40;;
22660;SDS011;11497;52.222;21.246;2023-05-02T12:46:31;13.07;;;10.15;;
22660;SDS011;11497;52.222;21.246;2023-05-02T12:49:00;15.10;;;9.63;;
22660;SDS011;11497;52.222;21.246;2023-05-02T12:51:32;16.48;;;9.85;;
22660;SDS011;11497;52.222;21.246;2023-05-02T12:54:00;13.93;;;9.77;;
22660;SDS011;11497;52.222;21.246;2023-05-02T12:56:30;13.07;;;8.90;;
22660;SDS011;11497;52.222;21.246;2023-05-02T12:59:05;15.02;;;9.82;;
22660;SDS011;11497;52.222;21.246;2023-05-02T13:01:34;16.20;;;10.18;;
22660;SDS011;11497;52.222;21.246;2023-05-02T13:04:02;13.63;;;9.65;;
22660;SDS011;11497;52.222;21.246;2023-05-02T13:06:31;14.77;;;10.27;;
22660;SDS011;11497;52.222;21.246;2023-05-02T13:08:59;15.75;;;10.77;;
22660;SDS011;11497;52.222;21.246;2023-05-02T13:11:27;15.02;;;10.70;;
22660;SDS011;11497;52.222;21.246;2023-05-02T13:13:55;14.27;;;11.48;;
22660;SDS011;11497;52.222;21.246;2023-05-02T13:16:26;18.48;;;11.65;;
22660;SDS011;11497;52.222;21.246;2023-05-02T13:18:55;13.98;;;10.85;;
22660;SDS011;11497;52.222;21.246;2023-05-02T13:21:24;16.75;;;11.35;;
22660;SDS011;11497;52.222;21.246;2023-05-02T13:23:51;14.68;;;10.52;;
22660;SDS011;11497;52.222;21.246;2023-05-02T13:26:21;14.52;;;11.25;;
22660;SDS011;11497;52.222;21.246;2023-05-02T13:28:49;14.07;;;10.52;;
22660;SDS011;11497;52.222;21.246;2023-05-02T13:31:17;19.60;;;9.48;;
22660;SDS011;11497;52.222;21.246;2023-05-02T13:33:44;16.98;;;8.93;;
22660;SDS011;11497;52.222;21.246;2023-05-02T13:36:12;10.48;;;7.78;;
22660;SDS011;11497;52.222;21.246;2023-05-02T13:38:40;9.32;;;7.45;;
22660;SDS011;11497;52.222;21.246;2023-05-02T13:41:08;9.77;;;6.97;;
22660;SDS011;11497;52.222;21.246;2023-05-02T13:43:36;10.90;;;6.63;;
22660;SDS011;11497;52.222;21.246;2023-05-02T13:46:06;10.02;;;5.68;;
22660;SDS011;11497;52.222;21.246;2023-05-02T13:48:34;10.35;;;6.63;;
22660;SDS011;11497;52.222;21.246;2023-05-02T13:51:03;12.50;;;6.40;;
22660;SDS011;11497;52.222;21.246;2023-05-02T13:53:30;9.30;;;6.22;;
22660;SDS011;11497;52.222;21.246;2023-05-02T13:55:58;10.55;;;5.97;;
22660;SDS011;11497;52.222;21.246;2023-05-02T13:58:26;10.75;;;5.68;;
22660;SDS011;11497;52.222;21.246;2023-05-02T14:00:54;10.20;;;5.85;;
22660;SDS011;11497;52.222;21.246;2023-05-02T14:03:22;9.45;;;5.65;;
22660;SDS011;11497;52.222;21.246;2023-05-02T14:05:50;10.15;;;5.00;;
22660;SDS011;11497;52.222;21.246;2023-05-02T14:08:18;8.30;;;5.00;;
22660;SDS011;11497;52.222;21.246;2023-05-02T14:10:46;6.72;;;4.80;;
22660;SDS011;11497;52.222;21.246;2023-05-02T14:13:14;9.57;;;4.80;;
22660;SDS011;11497;52.222;21.246;2023-05-02T14:15:42;10.10;;;5.00;;
22660;SDS011;11497;52.222;21.246;2023-05-02T14:18:10;7.25;;;4.85;;
22660;SDS011;11497;52.222;21.246;2023-05-02T14:20:38;10.07;;;5.75;;
22660;SDS011;11497;52.222;21.246;2023-05-02T14:23:05;10.80;;;5.88;;
22660;SDS011;11497;52.222;21.246;2023-05-02T14:25:34;11.90;;;5.88;;
22660;SDS011;11497;52.222;21.246;2023-05-02T14:28:03;7.85;;;5.63;;
22660;SDS011;11497;52.222;21.246;2023-05-02T14:30:32;11.57;;;5.43;;
22660;SDS011;11497;52.222;21.246;2023-05-02T14:32:59;8.35;;;5.25;;
22660;SDS011;11497;52.222;21.246;2023-05-02T14:35:27;10.15;;;5.07;;
22660;SDS011;11497;52.222;21.246;2023-05-02T14:37:55;11.27;;;5.30;;
22660;SDS011;11497;52.222;21.246;2023-05-02T14:40:23;10.57;;;5.60;;
22660;SDS011;11497;52.222;21.246;2023-05-02T14:42:51;9.48;;;5.38;;
22660;SDS011;11497;52.222;21.246;2023-05-02T14:45:19;10.35;;;5.10;;
22660;SDS011;11497;52.222;21.246;2023-05-02T14:47:47;9.65;;;5.28;;
22660;SDS011;11497;52.222;21.246;2023-05-02T14:50:16;11.02;;;5.43;;
22660;SDS011;11497;52.222;21.246;2023-05-02T14:52:44;13.05;;;5.40;;
22660;SDS011;11497;52.222;21.246;2023-05-02T14:55:12;12.27;;;5.93;;
22660;SDS011;11497;52.222;21.246;2023-05-02T14:57:40;12.35;;;6.03;;
22660;SDS011;11497;52.222;21.246;2023-05-02T15:00:08;10.38;;;5.43;;
22660;SDS011;11497;52.222;21.246;2023-05-02T15:02:36;7.50;;;4.80;;
22660;SDS011;11497;52.222;21.246;2023-05-02T15:05:05;6.97;;;4.80;;
22660;SDS011;11497;52.222;21.246;2023-05-02T15:07:37;12.10;;;5.30;;
22660;SDS011;11497;52.222;21.246;2023-05-02T15:10:06;7.95;;;4.90;;
22660;SDS011;11497;52.222;21.246;2023-05-02T15:12:34;9.10;;;5.50;;
22660;SDS011;11497;52.222;21.246;2023-05-02T15:15:02;8.23;;;5.25;;
22660;SDS011;11497;52.222;21.246;2023-05-02T15:17:30;9.52;;;6.30;;
22660;SDS011;11497;52.222;21.246;2023-05-02T15:19:58;10.93;;;5.38;;
22660;SDS011;11497;52.222;21.246;2023-05-02T15:22:26;8.00;;;5.18;;
22660;SDS011;11497;52.222;21.246;2023-05-02T15:24:54;8.05;;;4.80;;
22660;SDS011;11497;52.222;21.246;2023-05-02T15:27:21;9.55;;;6.18;;
22660;SDS011;11497;52.222;21.246;2023-05-02T15:29:49;10.18;;;6.57;;
22660;SDS011;11497;52.222;21.246;2023-05-02T15:32:17;13.70;;;6.93;;
22660;SDS011;11497;52.222;21.246;2023-05-02T15:34:45;13.15;;;6.20;;
22660;SDS011;11497;52.222;21.246;2023-05-02T15:37:13;10.50;;;5.80;;
22660;SDS011;11497;52.222;21.246;2023-05-02T15:39:41;13.65;;;8.45;;
22660;SDS011;11497;52.222;21.246;2023-05-02T15:42:08;11.60;;;8.63;;
22660;SDS011;11497;52.222;21.246;2023-05-02T15:44:36;9.65;;;6.50;;